Time;durP1;ratioP1;P1;durP2;ratioP2;P2;SDS_P1;SDS_P2;PMS_P1;PMS_P2;Temp;Humidity;BMP_temperature;BMP_pressure;BME280_temperature;BME280_humidity;BME280_pressure;Samples;Min_cycle;Max_cycle;Signal;HPM_P1;HPM_P2
2021/12/07 00:01:33;;;;;;;1999.90;999.90;;;;;;;-4.23;60.57;100650.78;4965749;28;99448;-75
2021/12/07 00:04:01;;;;;;;1999.90;999.90;;;;;;;-4.25;60.55;100649.75;4949722;28;99632;-74
2021/12/07 00:06:29;;;;;;;1999.90;999.90;;;;;;;-4.25;60.63;100644.56;4965379;28;96768;-74
2021/12/07 00:08:57;;;;;;;1999.90;999.90;;;;;;;-4.21;60.81;100636.22;4962830;28;96807;-75
2021/12/07 00:11:26;;;;;;;1999.90;999.90;;;;;;;-4.20;60.41;100633.72;4953491;28;98717;-76
2021/12/07 00:13:57;;;;;;;1999.90;999.90;;;;;;;-4.21;60.45;100631.94;4952225;28;97592;-75
2021/12/07 00:16:26;;;;;;;1999.90;999.90;;;;;;;-4.21;60.52;100624.13;4949046;28;97439;-75
2021/12/07 00:18:57;;;;;;;1999.90;999.90;;;;;;;-4.21;60.64;100623.22;4950127;28;96979;-76
2021/12/07 00:21:25;;;;;;;1999.90;999.90;;;;;;;-4.21;60.51;100628.41;4945584;28;100712;-75
2021/12/07 00:23:52;;;;;;;1999.90;999.90;;;;;;;-4.23;60.43;100622.19;4945246;28;100615;-75
2021/12/07 00:26:36;;;;;;;1999.90;999.90;;;;;;;-4.25;60.50;100611.69;4947250;28;98824;-76
2021/12/07 00:29:07;;;;;;;1999.90;999.90;;;;;;;-4.24;60.52;100613.50;4922625;28;97120;-76
2021/12/07 00:31:40;;;;;;;1999.90;999.90;;;;;;;-4.27;60.48;100604.56;4945822;28;98994;-77
2021/12/07 00:34:15;;;;;;;1999.90;999.90;;;;;;;-4.28;60.59;100603.66;4944852;28;99572;-76
2021/12/07 00:36:47;;;;;;;1999.90;999.90;;;;;;;-4.28;60.60;100603.66;4959562;28;97913;-77
2021/12/07 00:39:18;;;;;;;1999.90;999.90;;;;;;;-4.28;60.52;100603.66;4945612;28;97143;-76
2021/12/07 00:41:46;;;;;;;1999.90;999.90;;;;;;;-4.31;60.68;100605.13;4941920;28;98835;-77
2021/12/07 00:44:18;;;;;;;1999.90;999.90;;;;;;;-4.31;60.45;100600.84;4943186;28;98121;-77
2021/12/07 00:46:46;;;;;;;1999.90;999.90;;;;;;;-4.30;60.58;100605.25;4945402;28;96718;-76
2021/12/07 00:49:14;;;;;;;1999.90;999.90;;;;;;;-4.26;60.42;100603.78;4940388;28;100097;-75
2021/12/07 00:51:43;;;;;;;1999.90;999.90;;;;;;;-4.24;60.43;100595.31;4943740;28;99344;-74
2021/12/07 00:54:11;;;;;;;1999.90;999.90;;;;;;;-4.23;60.34;100591.03;4941187;28;97952;-75
2021/12/07 00:56:39;;;;;;;1999.90;999.90;;;;;;;-4.21;60.33;100594.66;4942588;28;98298;-75
2021/12/07 00:59:07;;;;;;;1999.90;999.90;;;;;;;-4.19;60.42;100600.88;4945045;28;97322;-75
2021/12/07 01:01:37;;;;;;;1999.90;999.90;;;;;;;-4.19;60.21;100598.28;4941679;28;97946;-76
2021/12/07 01:04:05;;;;;;;1999.90;999.90;;;;;;;-4.17;60.20;100596.72;4943227;28;99568;-75
2021/12/07 01:06:46;;;;;;;1999.90;999.90;;;;;;;-4.16;60.21;100594.22;4915185;28;97500;-77
2021/12/07 01:09:22;;;;;;;1999.90;999.90;;;;;;;-4.13;60.12;100593.53;4942877;28;97213;-75
2021/12/07 01:25:50;;;;;;;1999.90;999.90;;;;;;;-4.09;59.89;100575.69;4942194;28;99075;-76
2021/12/07 01:28:24;;;;;;;1999.90;999.90;;;;;;;-4.10;60.34;100567.81;4941044;28;97565;-75
2021/12/07 01:30:58;;;;;;;1999.90;999.90;;;;;;;-4.12;59.98;100564.19;4939840;28;98737;-75
2021/12/07 01:36:39;;;;;;;1999.90;999.90;;;;;;;-4.15;60.04;100551.84;4909811;28;99803;-75
2021/12/07 01:39:46;;;;;;;1999.90;999.90;;;;;;;-4.14;60.26;100553.69;4923556;28;97845;-75
2021/12/07 01:48:06;;;;;;;1999.90;999.90;;;;;;;-4.20;60.00;100554.88;4915879;28;98742;-76
2021/12/07 01:50:49;;;;;;;1999.90;999.90;;;;;;;-4.19;60.41;100552.41;4941954;28;98776;-75
2021/12/07 01:57:49;;;;;;;1999.90;999.90;;;;;;;-4.16;60.22;100546.53;4924383;28;97492;-75
2021/12/07 02:01:54;;;;;;;1999.90;999.90;;;;;;;-4.07;59.83;100522.16;4895007;28;98796;-77
2021/12/07 02:04:22;;;;;;;1999.90;999.90;;;;;;;-4.05;59.79;100515.41;4898788;28;97301;-75
2021/12/07 02:06:52;;;;;;;1999.90;999.90;;;;;;;-4.04;59.76;100519.78;4922409;28;97432;-77
2021/12/07 02:09:21;;;;;;;1999.90;999.90;;;;;;;-4.05;59.92;100520.59;4926892;28;99834;-77
2021/12/07 02:11:58;;;;;;;1999.90;999.90;;;;;;;-4.07;59.66;100511.78;4942666;28;97178;-77
2021/12/07 02:14:26;;;;;;;1999.90;999.90;;;;;;;-4.11;59.85;100507.13;4924585;28;97239;-77
2021/12/07 02:17:00;;;;;;;1999.90;999.90;;;;;;;-4.13;59.77;100502.59;4940484;28;97762;-77
2021/12/07 02:19:28;;;;;;;1999.90;999.90;;;;;;;-4.09;59.84;100499.44;4932251;28;99547;-77
2021/12/07 02:21:58;;;;;;;1999.90;999.90;;;;;;;-4.13;59.67;100498.31;4940959;28;98583;-76
2021/12/07 02:24:32;;;;;;;1999.90;999.90;;;;;;;-4.15;59.46;100492.09;4942757;28;97229;-76
2021/12/07 02:27:01;;;;;;;1999.90;999.90;;;;;;;-4.15;59.60;100484.31;4937564;28;97687;-77
2021/12/07 02:29:29;;;;;;;1999.90;999.90;;;;;;;-4.18;59.97;100489.28;4922333;28;100571;-77
2021/12/07 02:31:58;;;;;;;1999.90;999.90;;;;;;;-4.19;59.67;100484.88;4941845;28;97255;-77
2021/12/07 02:34:26;;;;;;;1999.90;999.90;;;;;;;-4.18;59.93;100486.69;4928463;28;97790;-78
2021/12/07 02:36:59;;;;;;;1999.90;999.90;;;;;;;-4.21;59.84;100485.56;4926038;28;99260;-78
2021/12/07 02:39:31;;;;;;;1999.90;999.90;;;;;;;-4.25;60.07;100474.03;4926055;28;99354;-76
2021/12/07 02:42:02;;;;;;;1999.90;999.90;;;;;;;-4.28;60.16;100478.97;4944573;28;97570;-77
2021/12/07 02:44:31;;;;;;;1999.90;999.90;;;;;;;-4.32;59.97;100474.38;4927330;28;97001;-76
2021/12/07 02:46:59;;;;;;;1999.90;999.90;;;;;;;-4.30;59.98;100478.00;4925534;28;99228;-77
2021/12/07 02:49:29;;;;;;;1999.90;999.90;;;;;;;-4.32;60.01;100476.06;4942058;28;97873;-77
2021/12/07 02:52:00;;;;;;;1999.90;999.90;;;;;;;-4.32;60.25;100481.25;4943084;28;97202;-76
2021/12/07 02:54:28;;;;;;;1999.90;999.90;;;;;;;-4.35;60.17;100474.13;4943291;28;97474;-75
2021/12/07 02:56:56;;;;;;;1999.90;999.90;;;;;;;-4.40;59.95;100467.69;4942609;28;101279;-76
2021/12/07 02:59:26;;;;;;;1999.90;999.90;;;;;;;-4.39;60.21;100466.88;4942585;28;98267;-75
2021/12/07 03:02:00;;;;;;;1999.90;999.90;;;;;;;-4.42;60.43;100460.56;4940932;28;96945;-74
2021/12/07 03:04:34;;;;;;;1999.90;999.90;;;;;;;-4.43;60.35;100464.88;4943031;28;97648;-74
2021/12/07 03:07:11;;;;;;;1999.90;999.90;;;;;;;-4.44;60.34;100468.25;4941017;28;100659;-74
2021/12/07 03:26:15;;;;;;;1999.90;999.90;;;;;;;-4.37;60.17;100461.84;4925366;28;97833;-74
2021/12/07 03:28:45;;;;;;;1999.90;999.90;;;;;;;-4.37;60.11;100472.22;4958910;28;98090;-75
2021/12/07 03:31:17;;;;;;;1999.90;999.90;;;;;;;-4.42;60.41;100463.16;4925631;28;101146;-74
2021/12/07 03:33:48;;;;;;;1999.90;999.90;;;;;;;-4.43;60.15;100474.34;4941735;28;97579;-75
2021/12/07 03:36:16;;;;;;;1999.90;999.90;;;;;;;-4.44;60.34;100470.84;4932269;28;97192;-74
2021/12/07 03:38:47;;;;;;;1999.90;999.90;;;;;;;-4.46;60.44;100481.94;4942111;28;99411;-75
2021/12/07 03:41:16;;;;;;;1999.90;999.90;;;;;;;-4.48;60.36;100480.91;4924472;28;99970;-76
2021/12/07 03:43:45;;;;;;;1999.90;999.90;;;;;;;-4.48;60.50;100486.09;4940249;28;97430;-75
2021/12/07 03:46:15;;;;;;;1999.90;999.90;;;;;;;-4.45;60.48;100484.63;4924745;28;97523;-75
2021/12/07 03:48:43;;;;;;;1999.90;999.90;;;;;;;-4.42;60.58;100487.44;4957822;28;99376;-75
2021/12/07 03:51:11;;;;;;;1999.90;999.90;;;;;;;-4.39;60.24;100482.47;4925059;28;99147;-75
2021/12/07 03:53:40;;;;;;;1999.90;999.90;;;;;;;-4.37;60.41;100483.50;4925304;28;96808;-74
2021/12/07 03:56:09;;;;;;;1999.90;999.90;;;;;;;-4.35;60.16;100481.91;4941687;28;97830;-75
2021/12/07 03:58:41;;;;;;;1999.90;999.90;;;;;;;-4.37;59.91;100474.81;4931949;28;97879;-75
2021/12/07 04:01:11;;;;;;;1999.90;999.90;;;;;;;-4.35;60.29;100475.84;4925279;28;97899;-75
2021/12/07 04:03:41;;;;;;;1999.90;999.90;;;;;;;-4.35;60.11;100479.31;4957468;28;97677;-74
2021/12/07 04:06:10;;;;;;;1999.90;999.90;;;;;;;-4.34;60.06;100477.63;4926084;28;97836;-76
2021/12/07 04:08:42;;;;;;;1999.90;999.90;;;;;;;-4.39;60.18;100476.41;4940802;28;97822;-73
2021/12/07 04:11:16;;;;;;;1999.90;999.90;;;;;;;-4.44;60.31;100470.84;4940312;28;101094;-73
2021/12/07 04:13:45;;;;;;;1999.90;999.90;;;;;;;-4.48;60.43;100476.59;4925305;28;96929;-75
2021/12/07 04:16:17;;;;;;;1999.90;999.90;;;;;;;-4.47;60.48;100481.00;4940719;28;97309;-75
2021/12/07 04:18:48;;;;;;;1999.90;999.90;;;;;;;-4.44;60.24;100483.81;4940542;28;99108;-75
2021/12/07 04:21:17;;;;;;;1999.90;999.90;;;;;;;-4.44;60.44;100483.81;4923602;28;100859;-75
2021/12/07 04:23:44;;;;;;;1999.90;999.90;;;;;;;-4.48;60.48;100486.97;4931615;28;97707;-75
2021/12/07 04:26:15;;;;;;;1999.90;999.90;;;;;;;-4.50;60.55;100486.00;4942875;28;97761;-75
2021/12/07 04:28:46;;;;;;;1999.90;999.90;;;;;;;-4.49;60.49;100481.66;4937106;28;101090;-76
2021/12/07 04:31:14;;;;;;;1999.90;999.90;;;;;;;-4.50;60.52;100486.00;4940619;28;98719;-75
2021/12/07 04:33:42;;;;;;;1999.90;999.90;;;;;;;-4.49;60.46;100485.19;4939683;28;97005;-75
2021/12/07 04:36:11;;;;;;;1999.90;999.90;;;;;;;-4.48;60.59;100479.19;4941752;28;97576;-74
2021/12/07 04:38:40;;;;;;;1999.90;999.90;;;;;;;-4.46;60.48;100488.00;4939362;28;99357;-75
2021/12/07 04:41:08;;;;;;;1999.90;999.90;;;;;;;-4.45;60.46;100489.81;4955375;28;100784;-75
2021/12/07 04:43:38;;;;;;;1999.90;999.90;;;;;;;-4.47;60.46;100483.59;4939652;28;98533;-75
2021/12/07 04:46:12;;;;;;;1999.90;999.90;;;;;;;-4.45;60.63;100492.41;4940293;28;97298;-75
2021/12/07 04:59:48;;;;;;;1999.90;999.90;;;;;;;-4.40;60.22;100479.78;4940896;28;98773;-75
2021/12/07 05:02:17;;;;;;;1999.90;999.90;;;;;;;-4.39;60.32;100479.88;4939326;28;97853;-76
2021/12/07 05:04:45;;;;;;;1999.90;999.90;;;;;;;-4.39;60.10;100485.06;4956262;28;98067;-74
2021/12/07 05:07:21;;;;;;;1999.90;999.90;;;;;;;-4.40;59.95;100478.09;4938311;28;98301;-74
2021/12/07 05:12:46;;;;;;;1999.90;999.90;;;;;;;-4.40;59.96;100491.06;4940241;28;97833;-75
2021/12/07 05:15:22;;;;;;;1999.90;999.90;;;;;;;-4.38;59.93;100486.91;4941733;28;97648;-76
2021/12/07 05:18:03;;;;;;;1999.90;999.90;;;;;;;-4.39;60.22;100495.44;4932620;28;97822;-75
2021/12/07 05:34:31;;;;;;;1999.90;999.90;;;;;;;-4.44;60.12;100489.03;4916625;28;97343;-75
2021/12/07 05:37:49;;;;;;;1999.90;999.90;;;;;;;-4.54;60.23;100494.31;4892812;28;98307;-77
2021/12/07 05:40:19;;;;;;;1999.90;999.90;;;;;;;-4.51;60.13;100491.03;4947756;28;97375;-76
2021/12/07 05:42:47;;;;;;;1999.90;999.90;;;;;;;-4.51;60.06;100494.53;4959899;28;100464;-76
2021/12/07 05:45:17;;;;;;;1999.90;999.90;;;;;;;-4.51;60.05;100497.13;4948850;28;101037;-75
2021/12/07 05:47:47;;;;;;;1999.90;999.90;;;;;;;-4.53;60.11;100495.19;4942745;28;97907;-73
2021/12/07 05:50:17;;;;;;;1999.90;999.90;;;;;;;-4.57;60.09;100490.59;4943268;28;97314;-74
2021/12/07 05:52:46;;;;;;;1999.90;999.90;;;;;;;-4.57;60.06;100494.06;4938678;28;99971;-75
2021/12/07 05:55:14;;;;;;;1999.90;999.90;;;;;;;-4.56;60.31;100501.09;4942778;28;98333;-77
2021/12/07 05:57:42;;;;;;;1999.90;999.90;;;;;;;-4.56;60.29;100503.69;4926433;28;97994;-76
2021/12/07 06:00:17;;;;;;;1999.90;999.90;;;;;;;-4.56;60.26;100503.69;4945214;28;98370;-76
2021/12/07 06:02:46;;;;;;;1999.90;999.90;;;;;;;-4.53;60.08;100493.53;4947795;28;97628;-76
2021/12/07 06:05:15;;;;;;;1999.90;999.90;;;;;;;-4.52;60.24;100508.31;4945957;28;97942;-76
2021/12/07 06:07:42;;;;;;;1999.90;999.90;;;;;;;-4.55;60.09;100505.47;4947258;28;98021;-77
2021/12/07 06:10:11;;;;;;;1999.90;999.90;;;;;;;-4.54;60.20;100504.72;4945299;28;98304;-75
2021/12/07 06:12:39;;;;;;;1999.90;999.90;;;;;;;-4.51;60.16;100504.00;4941232;28;101034;-75
2021/12/07 06:15:08;;;;;;;1999.90;999.90;;;;;;;-4.52;60.19;100500.53;4943373;28;99749;-75
2021/12/07 06:17:36;;;;;;;1999.90;999.90;;;;;;;-4.55;60.27;100502.00;4944920;28;97182;-75
2021/12/07 06:20:06;;;;;;;1999.90;999.90;;;;;;;-4.58;60.18;100507.84;4944538;28;97919;-75
2021/12/07 06:22:34;;;;;;;1999.90;999.90;;;;;;;-4.60;60.41;100509.41;4944898;28;100206;-74
2021/12/07 06:25:02;;;;;;;1999.90;999.90;;;;;;;-4.59;60.33;100508.66;4943820;28;99509;-75
2021/12/07 06:27:30;;;;;;;1999.90;999.90;;;;;;;-4.56;60.34;100506.28;4942758;28;97390;-74
2021/12/07 06:29:58;;;;;;;1999.90;999.90;;;;;;;-4.54;60.21;100502.09;4943031;28;97082;-75
2021/12/07 06:32:26;;;;;;;1999.90;999.90;;;;;;;-4.53;60.19;100498.72;4935209;28;99637;-75
2021/12/07 06:34:54;;;;;;;1999.90;999.90;;;;;;;-4.53;60.17;100493.53;4921416;28;99236;-76
2021/12/07 06:37:23;;;;;;;1999.90;999.90;;;;;;;-4.53;60.11;100503.00;4944992;28;97905;-76
2021/12/07 06:39:51;;;;;;;1999.90;999.90;;;;;;;-4.53;60.22;100505.59;4944549;28;97331;-74
2021/12/07 06:42:18;;;;;;;1999.90;999.90;;;;;;;-4.52;60.04;100510.91;4942678;28;97984;-73
2021/12/07 06:44:46;;;;;;;1999.90;999.90;;;;;;;-4.52;60.14;100518.72;4944564;28;98881;-75
2021/12/07 06:47:14;;;;;;;1999.90;999.90;;;;;;;-4.53;60.01;100518.56;4942750;28;97205;-76
2021/12/07 06:49:42;;;;;;;1999.90;999.90;;;;;;;-4.54;60.24;100519.38;4943707;28;98353;-74
2021/12/07 06:52:10;;;;;;;1999.90;999.90;;;;;;;-4.53;60.36;100527.28;4946559;28;97708;-74
2021/12/07 06:54:39;;;;;;;1999.90;999.90;;;;;;;-4.51;60.13;100533.50;4937233;28;98932;-73
2021/12/07 06:57:07;;;;;;;1999.90;999.90;;;;;;;-4.51;60.42;100540.34;4945289;28;98149;-74
2021/12/07 06:59:34;;;;;;;1999.90;999.90;;;;;;;-4.50;60.38;100548.28;4945571;28;97253;-74
2021/12/07 07:02:03;;;;;;;1999.90;999.90;;;;;;;-4.50;60.49;100537.91;4946076;28;97835;-75
2021/12/07 07:04:31;;;;;;;1999.90;999.90;;;;;;;-4.48;60.30;100544.09;4951191;28;98461;-76
2021/12/07 07:06:58;;;;;;;1999.90;999.90;;;;;;;-4.49;60.32;100547.50;4944340;28;97619;-75
2021/12/07 07:09:26;;;;;;;1999.90;999.90;;;;;;;-4.47;60.34;100548.50;4944661;28;97744;-75
2021/12/07 07:11:55;;;;;;;1999.90;999.90;;;;;;;-4.46;60.47;100544.25;4945590;28;98768;-76
2021/12/07 07:14:23;;;;;;;1999.90;999.90;;;;;;;-4.46;60.38;100549.44;4945152;28;99080;-77
2021/12/07 07:16:51;;;;;;;1999.90;999.90;;;;;;;-4.43;60.20;100550.56;4945629;28;97410;-75
2021/12/07 07:19:19;;;;;;;1999.90;999.90;;;;;;;-4.42;60.33;100549.75;4946502;28;97814;-75
2021/12/07 07:21:46;;;;;;;1999.90;999.90;;;;;;;-4.41;60.71;100559.38;4943246;28;99420;-75
2021/12/07 07:24:14;;;;;;;1999.90;999.90;;;;;;;-4.40;60.51;100553.38;4945663;28;100582;-75
2021/12/07 07:26:42;;;;;;;1999.90;999.90;;;;;;;-4.37;60.54;100558.81;4944139;28;96844;-77
2021/12/07 07:29:11;;;;;;;1999.90;999.90;;;;;;;-4.38;60.43;100554.41;4943960;28;97520;-73
2021/12/07 07:31:40;;;;;;;1999.90;999.90;;;;;;;-4.37;60.61;100543.22;4943420;28;97177;-73
2021/12/07 07:34:08;;;;;;;1999.90;999.90;;;;;;;-4.32;60.49;100559.16;4943396;28;98391;-76
2021/12/07 07:36:36;;;;;;;1999.90;999.90;;;;;;;-4.29;60.64;100559.38;4943760;28;97428;-75
2021/12/07 07:39:04;;;;;;;1999.90;999.90;;;;;;;-4.25;60.33;100559.75;4939233;28;97671;-75
2021/12/07 07:41:32;;;;;;;1999.90;999.90;;;;;;;-4.21;60.31;100566.09;4941914;28;98723;-74
2021/12/07 07:44:00;;;;;;;1999.90;999.90;;;;;;;-4.21;60.15;100563.47;4940170;28;99841;-74
2021/12/07 07:46:34;;;;;;;1999.90;999.90;;;;;;;-4.20;60.49;100560.09;4932206;28;97257;-74
2021/12/07 07:49:03;;;;;;;1999.90;999.90;;;;;;;-4.18;60.41;100569.81;4943293;28;99105;-74
2021/12/07 07:51:32;;;;;;;1999.90;999.90;;;;;;;-4.18;60.41;100569.81;4942403;28;98876;-73
2021/12/07 07:53:59;;;;;;;1999.90;999.90;;;;;;;-4.17;60.29;100576.81;4942576;28;98396;-74
2021/12/07 07:56:27;;;;;;;1999.90;999.90;;;;;;;-4.16;60.41;100572.53;4941005;28;97410;-76
2021/12/07 07:58:56;;;;;;;1999.90;999.90;;;;;;;-4.18;60.51;100579.28;4944196;28;97350;-75
2021/12/07 08:01:24;;;;;;;1999.90;999.90;;;;;;;-4.20;60.34;100589.56;4943290;28;98705;-74
2021/12/07 08:03:54;;;;;;;1999.90;999.90;;;;;;;-4.19;60.04;100586.16;4941016;28;99666;-75
2021/12/07 08:06:21;;;;;;;1999.90;999.90;;;;;;;-4.16;60.45;100583.81;4942615;28;97185;-72
2021/12/07 08:08:49;;;;;;;1999.90;999.90;;;;;;;-4.11;60.12;100587.66;4940771;28;96978;-74
2021/12/07 08:11:17;;;;;;;1999.90;999.90;;;;;;;-4.06;60.23;100585.44;4942306;28;97652;-75
2021/12/07 08:13:53;;;;;;;1999.90;999.90;;;;;;;-4.08;60.28;100593.09;4925320;28;97829;-74
2021/12/07 08:16:23;;;;;;;1999.90;999.90;;;;;;;-4.05;60.13;100595.03;4942055;28;97284;-74
2021/12/07 08:18:52;;;;;;;1999.90;999.90;;;;;;;-4.03;60.02;100596.03;4924614;28;98257;-73
2021/12/07 08:21:21;;;;;;;1999.90;999.90;;;;;;;-4.00;59.83;100604.97;4940701;28;99383;-73
2021/12/07 08:23:49;;;;;;;1999.90;999.90;;;;;;;-3.96;60.19;100608.72;4944447;28;97707;-73
2021/12/07 08:26:20;;;;;;;1999.90;999.90;;;;;;;-3.95;60.10;100611.41;4943914;28;97254;-73
2021/12/07 08:28:51;;;;;;;1999.90;999.90;;;;;;;-3.92;60.14;100616.88;4942624;28;97751;-72
2021/12/07 08:31:19;;;;;;;1999.90;999.90;;;;;;;-3.89;59.92;100618.78;4942189;28;100025;-74
2021/12/07 08:33:47;;;;;;;1999.90;999.90;;;;;;;-3.86;60.29;100621.63;4943049;28;99237;-73
2021/12/07 08:36:16;;;;;;;1999.90;999.90;;;;;;;-3.86;60.23;100625.09;4941732;28;97775;-74
2021/12/07 08:38:45;;;;;;;1999.90;999.90;;;;;;;-3.84;59.97;100630.41;4944061;28;97066;-74
2021/12/07 08:41:14;;;;;;;1999.90;999.90;;;;;;;-3.81;59.69;100627.16;4942448;28;99415;-74
2021/12/07 08:43:42;;;;;;;1999.90;999.90;;;;;;;-3.77;59.61;100627.50;4942556;28;100184;-74
2021/12/07 08:46:12;;;;;;;1999.90;999.90;;;;;;;-3.77;59.45;100621.41;4943659;28;98461;-74
2021/12/07 08:48:41;;;;;;;1999.90;999.90;;;;;;;-3.76;59.98;100615.41;4943961;28;97389;-73
2021/12/07 08:51:11;;;;;;;1999.90;999.90;;;;;;;-3.75;59.99;100612.03;4942487;28;99782;-73
2021/12/07 08:53:46;;;;;;;1999.90;999.90;;;;;;;-3.75;60.12;100618.13;4943620;28;99307;-74
2021/12/07 09:01:47;;;;;;;1999.90;999.90;;;;;;;-3.75;59.97;100625.03;4943480;28;97597;-73
2021/12/07 09:04:17;;;;;;;1999.90;999.90;;;;;;;-3.72;60.03;100625.25;4943780;28;97666;-74
2021/12/07 09:06:45;;;;;;;1999.90;999.90;;;;;;;-3.71;59.84;100627.06;4942491;28;96880;-73
2021/12/07 09:09:13;;;;;;;1999.90;999.90;;;;;;;-3.66;59.75;100641.31;4943496;28;97474;-74
2021/12/07 09:11:43;;;;;;;1999.90;999.90;;;;;;;-3.65;59.87;100635.31;4943145;28;97558;-74
2021/12/07 09:14:14;;;;;;;1999.90;999.90;;;;;;;-3.64;60.34;100632.81;4942243;28;98129;-74
2021/12/07 09:16:42;;;;;;;1999.90;999.90;;;;;;;-3.58;59.95;100627.16;4942049;28;97179;-76
2021/12/07 09:19:11;;;;;;;1999.90;999.90;;;;;;;-3.55;59.44;100628.31;4942224;28;97250;-73
2021/12/07 09:21:39;;;;;;;1999.90;999.90;;;;;;;-3.52;59.64;100614.63;4942677;28;99124;-73
2021/12/07 09:24:07;;;;;;;1999.90;999.90;;;;;;;-3.48;59.24;100616.66;4927588;28;97835;-72
2021/12/07 09:26:36;;;;;;;1999.90;999.90;;;;;;;-3.44;59.71;100613.50;4943820;28;97654;-73
2021/12/07 09:29:07;;;;;;;1999.90;999.90;;;;;;;-3.40;59.21;100619.03;4928530;28;97629;-75
2021/12/07 09:31:35;;;;;;;1999.90;999.90;;;;;;;-3.39;59.49;100622.53;4951194;28;99911;-72
2021/12/07 09:34:04;;;;;;;1999.90;999.90;;;;;;;-3.37;59.12;100627.09;4950613;28;98280;-72
2021/12/07 09:36:32;;;;;;;1999.90;999.90;;;;;;;-3.36;59.70;100622.75;4949917;28;96985;-73
2021/12/07 09:39:00;;;;;;;1999.90;999.90;;;;;;;-3.35;58.93;100624.59;4949714;28;96938;-74
2021/12/07 09:41:28;;;;;;;1999.90;999.90;;;;;;;-3.35;59.36;100625.47;4947264;28;98874;-73
2021/12/07 09:43:56;;;;;;;1999.90;999.90;;;;;;;-3.34;59.44;100629.91;4936400;28;97693;-76
2021/12/07 09:46:25;;;;;;;1999.90;999.90;;;;;;;-3.33;59.23;100628.22;4943714;28;97976;-73
2021/12/07 09:48:53;;;;;;;1999.90;999.90;;;;;;;-3.33;59.43;100626.50;4941362;28;97266;-72
2021/12/07 09:51:24;;;;;;;1999.90;999.90;;;;;;;-3.30;59.64;100637.13;4939485;28;99025;-72
2021/12/07 09:53:53;;;;;;;1999.90;999.90;;;;;;;-3.28;59.10;100629.44;4941798;28;101010;-73
2021/12/07 09:56:25;;;;;;;1999.90;999.90;;;;;;;-3.24;59.16;100641.88;4942770;28;99050;-73
2021/12/07 09:58:55;;;;;;;1999.90;999.90;;;;;;;-3.18;58.75;100643.22;4931721;28;97384;-72
2021/12/07 10:01:23;;;;;;;1999.90;999.90;;;;;;;-3.20;59.03;100636.13;4940235;28;97989;-73
2021/12/07 10:03:53;;;;;;;1999.90;999.90;;;;;;;-3.18;59.45;100632.81;4941339;28;101891;-73
2021/12/07 10:06:22;;;;;;;1999.90;999.90;;;;;;;-3.14;59.02;100641.75;4942797;28;97857;-73
2021/12/07 10:08:50;;;;;;;1999.90;999.90;;;;;;;-3.12;59.41;100641.09;4941377;28;97718;-73
2021/12/07 10:11:18;;;;;;;1999.90;999.90;;;;;;;-3.09;59.00;100638.69;4940972;28;98842;-72
2021/12/07 10:13:48;;;;;;;1999.90;999.90;;;;;;;-3.06;59.49;100638.03;4941467;28;98671;-74
2021/12/07 10:16:16;;;;;;;1999.90;999.90;;;;;;;-3.05;59.00;100638.13;4942092;28;96870;-72
2021/12/07 10:18:45;;;;;;;1999.90;999.90;;;;;;;-3.04;59.18;100639.03;4941896;28;97712;-73
2021/12/07 10:21:17;;;;;;;1999.90;999.90;;;;;;;-3.03;58.76;100635.63;4942484;28;98653;-73
2021/12/07 10:23:46;;;;;;;1999.90;999.90;;;;;;;-2.95;58.54;100634.50;4942983;28;99487;-74
2021/12/07 10:26:17;;;;;;;1999.90;999.90;;;;;;;-2.94;58.60;100633.69;4940508;28;98760;-71
2021/12/07 10:28:47;;;;;;;1999.90;999.90;;;;;;;-2.91;58.65;100636.53;4925420;28;97361;-73
2021/12/07 10:31:19;;;;;;;1999.90;999.90;;;;;;;-2.91;58.98;100641.75;4942790;28;97994;-73
2021/12/07 10:33:52;;;;;;;1999.90;999.90;;;;;;;-2.93;59.36;100635.50;4940033;28;99384;-74
2021/12/07 10:36:24;;;;;;;1999.90;999.90;;;;;;;-2.91;59.42;100633.94;4942495;28;97926;-74
2021/12/07 10:38:57;;;;;;;1999.90;999.90;;;;;;;-2.85;59.46;100636.94;4940808;28;97536;-72
2021/12/07 10:41:26;;;;;;;1999.90;999.90;;;;;;;-2.80;58.67;100632.97;4942650;28;97670;-74
2021/12/07 10:44:00;;;;;;;1999.90;999.90;;;;;;;-2.78;58.88;100625.28;4929982;28;102457;-73
2021/12/07 10:46:48;;;;;;;1999.90;999.90;;;;;;;-2.78;58.44;100622.69;4943409;28;97902;-73
2021/12/07 10:49:36;;;;;;;1999.90;999.90;;;;;;;-2.74;58.36;100628.22;4939756;28;97359;-73
2021/12/07 10:52:33;;;;;;;1999.90;999.90;;;;;;;-2.69;59.19;100629.44;4941962;28;97833;-74
2021/12/07 10:55:06;;;;;;;1999.90;999.90;;;;;;;-2.63;59.03;100624.66;4923530;28;98651;-74
2021/12/07 10:57:38;;;;;;;1999.90;999.90;;;;;;;-2.61;58.84;100623.06;4945735;28;96853;-74
2021/12/07 11:00:15;;;;;;;1999.90;999.90;;;;;;;-2.61;59.00;100615.25;4944906;28;97342;-74
2021/12/07 11:02:45;;;;;;;1999.90;999.90;;;;;;;-2.56;58.81;100621.69;4946644;28;97865;-74
2021/12/07 11:05:17;;;;;;;1999.90;999.90;;;;;;;-2.52;58.69;100621.13;4961009;28;99421;-72
2021/12/07 11:07:46;;;;;;;1999.90;999.90;;;;;;;-2.51;58.39;100620.31;4945941;28;99155;-74
2021/12/07 11:10:19;;;;;;;1999.90;999.90;;;;;;;-2.49;58.03;100607.41;4947836;28;97002;-75
2021/12/07 11:12:53;;;;;;;1999.90;999.90;;;;;;;-2.48;58.63;100610.13;4945274;28;98820;-73
2021/12/07 11:15:26;;;;;;;1999.90;999.90;;;;;;;-2.45;58.64;100607.72;4942527;28;100455;-73
2021/12/07 11:17:56;;;;;;;1999.90;999.90;;;;;;;-2.43;58.19;100603.53;4943986;28;97004;-74
2021/12/07 11:20:25;;;;;;;1999.90;999.90;;;;;;;-2.43;58.32;100611.34;4943668;28;96936;-74
2021/12/07 11:22:58;;;;;;;1999.90;999.90;;;;;;;-2.42;58.01;100604.44;4944345;28;99688;-73
2021/12/07 11:31:19;;;;;;;1999.90;999.90;;;;;;;-2.33;58.59;100605.06;4943248;28;97673;-74
2021/12/07 11:33:47;;;;;;;1999.90;999.90;;;;;;;-2.29;58.59;100607.97;4943978;28;97660;-74
2021/12/07 11:36:21;;;;;;;1999.90;999.90;;;;;;;-2.26;57.81;100616.03;4943522;28;98692;-75
2021/12/07 11:38:51;;;;;;;1999.90;999.90;;;;;;;-2.23;58.24;100621.44;4945382;28;97951;-76
2021/12/07 11:41:21;;;;;;;1999.90;999.90;;;;;;;-2.19;58.41;100626.06;4943187;28;97576;-72
2021/12/07 11:43:58;;;;;;;1999.90;999.90;;;;;;;-2.17;58.38;100627.13;4941919;28;100396;-72
2021/12/07 11:46:27;;;;;;;1999.90;999.90;;;;;;;-2.13;58.55;100625.63;4944402;28;98133;-73
2021/12/07 11:49:12;;;;;;;1999.90;999.90;;;;;;;-2.11;58.16;100619.69;4942892;28;97625;-70
2021/12/07 11:51:43;;;;;;;1999.90;999.90;;;;;;;-2.03;57.64;100628.03;4940106;28;97794;-73
2021/12/07 11:54:14;;;;;;;1999.90;999.90;;;;;;;-2.01;58.06;100616.94;4942492;28;97705;-73
2021/12/07 11:56:44;;;;;;;1999.90;999.90;;;;;;;-1.97;57.72;100618.97;4943540;28;97985;-73
2021/12/07 11:59:13;;;;;;;1999.90;999.90;;;;;;;-1.95;57.64;100625.19;4943004;28;96879;-73
2021/12/07 12:01:44;;;;;;;1999.90;999.90;;;;;;;-1.94;57.76;100626.97;4942821;28;97799;-72
2021/12/07 12:04:14;;;;;;;1999.90;999.90;;;;;;;-1.92;58.08;100630.59;4955728;28;97703;-74
2021/12/07 12:06:43;;;;;;;1999.90;999.90;;;;;;;-1.88;58.06;100634.31;4942715;28;98604;-74
2021/12/07 12:09:12;;;;;;;1999.90;999.90;;;;;;;-1.88;58.04;100643.06;4943642;28;97002;-73
2021/12/07 12:11:43;;;;;;;1999.90;999.90;;;;;;;-1.87;57.63;100652.66;4958414;28;97214;-73
2021/12/07 12:14:21;;;;;;;1999.90;999.90;;;;;;;-1.84;58.31;100646.78;4942757;28;100446;-72
2021/12/07 12:16:58;;;;;;;1999.90;999.90;;;;;;;-1.79;57.74;100644.44;4943345;28;97636;-72
2021/12/07 12:19:32;;;;;;;1999.90;999.90;;;;;;;-1.82;57.02;100644.25;4942826;28;98544;-72
2021/12/07 12:22:05;;;;;;;1999.90;999.90;;;;;;;-1.78;57.86;100648.88;4942189;28;97932;-72
2021/12/07 12:24:39;;;;;;;1999.90;999.90;;;;;;;-1.78;57.84;100647.19;4942086;28;100555;-73
2021/12/07 12:27:09;;;;;;;1999.90;999.90;;;;;;;-1.75;57.84;100652.59;4943663;28;97617;-73